Terminal Aerodrome Forecast
Issued by NWS

Home | Current Version | Previous Version | Text Only | Print | Product List | Glossary On
Versions: 1 2 3 4 5 6 7 8 9 10 11 12 13 14 15 16 17 18 19 20 21 22 23 24 25 26 27
444
FTUS41 KOKX 171729
TAFSWF
TAF
KSWF 171729Z 1718/1824 18007KT P6SM OVC200
     FM172300 16005KT 2SM -SN SCT005 BKN012
     FM180200 VRB03KT 1/2SM SN OVC005
     FM180600 VRB03KT 2SM -SN OVC007
     FM180800 29007KT P6SM SCT007 OVC040
     FM181400 30012G20KT P6SM FEW035
      AMD NOT SKED=

USA.gov is the U.S. government's official web portal to all federal, state and local government web resources and services.